NCAR-RAP Real-Time Weather Data

Output produced by METARs form (24 April 2018  16:23 UTC)
found at http://weather.rap.ucar.edu/surface/
 
RJCK 241100Z 25001KT 9999 FEW010 BKN015 05/04 Q1017
RJCK 241000Z 19004KT 9999 FEW020 SCT040 BKN/// 06/04 Q1017
RJCK 240900Z 18004KT 9999 FEW030 BKN/// 06/04 Q1017
RJCK 240800Z 17007KT 9999 FEW030 BKN160 07/04 Q1017
RJCK 240700Z 18009KT 9999 FEW040 BKN150 08/05 Q1017
RJCK 240600Z 17010KT 9999 FEW030 SCT040 BKN150 08/04 Q1018
RJCK 240500Z 16008KT 9999 FEW030 BKN040 BKN150 08/04 Q1018
RJCK 240400Z 16008KT 130V190 9999 FEW030 SCT040 BKN150 09/04 Q1019
RJCK 240300Z 15010KT 9999 FEW030 BKN040 BKN150 08/03 Q1020
RJCK 240200Z 17006KT 120V210 9999 FEW010 SCT015 BKN030 09/05 Q1021
RJCK 240100Z 17004KT 100V220 9999 FEW010 BKN015 BKN030 08/05 Q1022
RJCK 240000Z 16003KT 130V200 9999 FEW008 BKN012 BKN030 07/04 Q1023
RJCK 232305Z VRB02KT 9999 FEW006 BKN010 BKN015 06/04 Q1023 RMK 1ST006 5ST010 7ST015 A3023
RJCK 232300Z VRB01KT 9999 FEW005 BKN008 BKN012 06/04 Q1023
RJCK 232200Z 04003KT 360V080 9999 FEW005 BKN008 BKN012 05/03 Q1024
RJCK 232145Z 01003KT 9999 FEW005 BKN008 BKN012 05/03 Q1024 RMK 1ST005 5ST008 7ST012 A3024
RJCK 231100Z 15006KT 9999 FEW030 SCT/// 04/02 Q1026
RJCK 231000Z 16004KT 9999 FEW030 BKN/// 03/01 Q1026
RJCK 230900Z 17003KT 140V220 9999 FEW030 BKN/// 05/02 Q1025
RJCK 230800Z 20005KT 170V230 9999 FEW010 SCT070 BKN/// 06/02 Q1025
RJCK 230700Z 20009KT 170V250 9999 FEW010 BKN/// 06/02 Q1024
RJCK 230600Z 19016KT 9999 FEW030 SCT/// 07/01 Q1024
RJCK 230500Z 20018KT 9999 FEW030 SCT060 07/M00 Q1024
RJCK 230400Z 19018KT 9999 FEW030 SCT060 07/M01 Q1024
RJCK 230300Z 20017KT 9999 FEW020 SCT050 08/M01 Q1025
RJCK 230200Z 20017KT 9999 FEW020 SCT050 09/02 Q1025
RJCK 230100Z 19014KT 9999 FEW050 08/02 Q1026
RJCK 230000Z 19013KT CAVOK 07/00 Q1026
RJCK 222300Z 21007KT 170V250 CAVOK 06/00 Q1026
RJCK 222200Z 22006KT CAVOK 05/01 Q1026
RJCK 222145Z 22003KT 180V280 CAVOK 05/02 Q1026 RMK A3032
RJCK 221100Z 19005KT 9999 FEW005 SCT008 BKN012 03/01 Q1024
RJCK 221000Z 21005KT 9999 FEW005 SCT012 BKN060 03/01 Q1023
RJCK 220900Z 18005KT 9999 FEW005 SCT008 BKN012 03/01 Q1022
RJCK 220800Z 21008KT 9999 FEW005 BKN012 BKN080 04/02 Q1022
RJCK 220700Z 20010KT 9999 FEW005 BKN012 BKN160 05/02 Q1021
RJCK 220600Z 20014KT 9999 FEW008 BKN015 BKN160 06/02 Q1020
RJCK 220500Z 19016KT 9999 FEW020 SCT050 BKN160 07/02 Q1020